createdAt,value
2018-08-22T00:04:14.494Z,1.60
2018-08-22T00:09:19.599Z,1.60
2018-08-22T00:14:22.793Z,1.77
2018-08-22T00:19:26.039Z,1.33
2018-08-22T00:24:30.261Z,1.73
2018-08-22T00:29:33.595Z,1.57
2018-08-22T00:34:36.863Z,1.40
2018-08-22T00:39:40.105Z,1.43
2018-08-22T00:44:43.382Z,1.87
2018-08-22T00:49:46.553Z,1.50
2018-08-22T00:54:49.730Z,1.80
2018-08-22T00:59:52.938Z,2.10
2018-08-22T01:04:56.125Z,1.60
2018-08-22T01:10:01.367Z,1.67
2018-08-22T01:15:04.658Z,2.00
2018-08-22T01:20:08.362Z,1.80
2018-08-22T01:25:11.545Z,1.40
2018-08-22T01:30:14.737Z,1.93
2018-08-22T01:35:18.966Z,2.00
2018-08-22T01:40:22.144Z,1.73
2018-08-22T01:45:25.314Z,1.47
2018-08-22T01:50:28.571Z,1.60
2018-08-22T01:55:31.725Z,1.80
2018-08-22T02:00:34.894Z,1.90
2018-08-22T02:05:38.102Z,1.90
2018-08-22T02:10:41.319Z,1.70
2018-08-22T02:15:44.481Z,1.80
2018-08-22T02:20:47.802Z,1.80
2018-08-22T02:25:50.982Z,2.03
2018-08-22T02:30:54.151Z,2.00
2018-08-22T02:35:57.374Z,1.83
2018-08-22T02:41:01.587Z,1.90
2018-08-22T02:46:04.934Z,2.00
2018-08-22T02:51:08.207Z,1.83
2018-08-22T02:56:11.411Z,1.90
2018-08-22T03:01:14.641Z,1.63
2018-08-22T03:06:17.832Z,2.17
2018-08-22T03:11:21.043Z,2.07
2018-08-22T03:16:24.217Z,2.00
2018-08-22T03:21:27.369Z,3.03
2018-08-22T03:26:30.535Z,2.97
2018-08-22T03:31:33.710Z,3.63
2018-08-22T03:36:36.906Z,3.23
2018-08-22T03:41:40.139Z,2.30
2018-08-22T03:46:43.322Z,3.43
2018-08-22T03:51:46.488Z,2.97
2018-08-22T03:56:49.668Z,2.97
2018-08-22T04:01:52.831Z,3.00
2018-08-22T04:06:56.021Z,2.80
2018-08-22T04:11:59.198Z,2.50
2018-08-22T04:17:02.385Z,2.50
2018-08-22T04:22:05.576Z,2.07
2018-08-22T04:27:09.799Z,2.27
2018-08-22T04:32:12.981Z,2.13
2018-08-22T04:37:16.204Z,2.10
2018-08-22T04:42:19.330Z,2.60
2018-08-22T04:47:22.505Z,2.10
2018-08-22T04:52:25.690Z,2.50
2018-08-22T04:57:28.898Z,2.53
2018-08-22T05:02:32.165Z,2.10
2018-08-22T05:07:37.319Z,2.00
2018-08-22T05:12:40.474Z,2.47
2018-08-22T05:17:43.658Z,1.93
2018-08-22T05:22:47.873Z,2.20
2018-08-22T05:27:51.055Z,2.83
2018-08-22T05:32:54.214Z,2.20
2018-08-22T05:37:57.387Z,2.37
2018-08-22T05:43:00.606Z,2.27
2018-08-22T05:48:03.806Z,3.60
2018-08-22T05:53:07.054Z,2.57
2018-08-22T05:58:10.262Z,4.03
2018-08-22T06:03:13.708Z,7.90
2018-08-22T06:08:19.870Z,7.23
2018-08-22T06:13:25.144Z,6.33
2018-08-22T06:18:29.146Z,6.43
2018-08-22T06:23:32.939Z,5.47
2018-08-22T06:28:36.361Z,4.57
2018-08-22T06:33:39.577Z,4.80
2018-08-22T06:38:42.852Z,3.90
2018-08-22T06:43:46.296Z,4.13
2018-08-22T06:48:49.529Z,3.97
2018-08-22T06:53:53.798Z,3.40
2018-08-22T06:58:56.999Z,3.87
2018-08-22T07:04:01.262Z,3.77
2018-08-22T07:09:08.282Z,3.70
2018-08-22T07:14:11.828Z,4.17
2018-08-22T07:19:15.550Z,4.07
2018-08-22T07:24:22.527Z,4.87
2018-08-22T07:29:26.550Z,4.73
2018-08-22T07:34:30.012Z,4.97
2018-08-22T07:39:33.399Z,4.63
2018-08-22T07:44:38.571Z,5.03
2018-08-22T07:49:42.320Z,5.13
2018-08-22T07:54:47.427Z,4.90
2018-08-22T07:59:51.342Z,4.30
2018-08-22T08:04:54.578Z,4.50
2018-08-22T08:09:57.779Z,4.50
2018-08-22T08:15:04.018Z,4.40
2018-08-22T08:20:08.250Z,3.93
2018-08-22T08:25:11.570Z,3.63
2018-08-22T08:30:15.012Z,4.00
2018-08-22T08:35:18.250Z,4.00
2018-08-22T08:40:21.434Z,4.10
2018-08-22T08:45:24.705Z,3.50
2018-08-22T08:50:27.994Z,4.43
2018-08-22T08:55:31.230Z,4.67
2018-08-22T09:00:35.502Z,4.30
2018-08-22T09:05:38.757Z,3.93
2018-08-22T09:10:42.099Z,4.03
2018-08-22T09:15:45.402Z,4.43
2018-08-22T09:20:48.562Z,5.17
2018-08-22T09:25:51.790Z,4.13
2018-08-22T09:30:54.980Z,5.13
2018-08-22T09:35:58.175Z,4.20
2018-08-22T09:41:02.467Z,4.67
2018-08-22T09:46:05.825Z,4.37
2018-08-22T09:51:09.099Z,4.40
2018-08-22T09:56:12.226Z,5.43
2018-08-22T10:01:20.835Z,5.43
2018-08-22T10:06:32.124Z,5.77
2018-08-22T10:11:35.451Z,5.83
2018-08-22T10:16:38.689Z,5.40
2018-08-22T10:21:42.615Z,5.30
2018-08-22T10:26:45.768Z,5.40
2018-08-22T10:31:49.162Z,5.77
2018-08-22T10:36:53.711Z,5.10
2018-08-22T10:41:57.115Z,5.67
2018-08-22T10:47:00.305Z,6.40
2018-08-22T10:52:03.598Z,6.03
2018-08-22T10:57:08.606Z,6.13
2018-08-22T11:02:11.866Z,5.90
2018-08-22T11:07:15.066Z,6.20
2018-08-22T11:12:18.366Z,6.10
2018-08-22T11:17:21.570Z,5.67
2018-08-22T11:22:36.064Z,6.83
2018-08-22T11:27:51.753Z,5.67
2018-08-22T11:33:06.390Z,5.70
2018-08-22T11:38:10.624Z,6.10
2018-08-22T11:43:15.100Z,5.10
2018-08-22T11:48:21.475Z,5.63
2018-08-22T11:53:24.709Z,5.43
2018-08-22T11:58:34.414Z,5.77
2018-08-22T12:03:37.742Z,5.20
2018-08-22T12:08:40.922Z,5.83
2018-08-22T12:13:44.170Z,5.60
2018-08-22T12:18:47.377Z,5.30
2018-08-22T12:23:50.559Z,5.23
2018-08-22T12:28:53.826Z,5.07
2018-08-22T12:33:58.383Z,6.13
2018-08-22T12:39:01.783Z,5.53
2018-08-22T12:44:07.063Z,4.40
2018-08-22T12:49:10.398Z,4.90
2018-08-22T12:54:13.657Z,4.43
2018-08-22T12:59:16.834Z,5.17
2018-08-22T13:04:21.053Z,4.70
2018-08-22T13:09:24.286Z,4.47
2018-08-22T13:14:32.245Z,4.43
2018-08-22T13:19:35.715Z,4.10
2018-08-22T13:24:39.091Z,5.00
2018-08-22T13:29:46.963Z,4.40
2018-08-22T13:34:50.165Z,4.33
2018-08-22T13:39:57.302Z,4.30
2018-08-22T13:45:01.628Z,4.50
2018-08-22T13:50:04.932Z,4.70
2018-08-22T13:55:08.127Z,4.70
2018-08-22T14:00:11.490Z,4.43
2018-08-22T14:05:15.831Z,4.00
2018-08-22T14:10:21.039Z,4.27
2018-08-22T14:15:24.244Z,3.83
2018-08-22T14:20:27.668Z,5.17
2018-08-22T14:25:32.208Z,3.80
2018-08-22T14:30:36.410Z,4.60
2018-08-22T14:35:39.617Z,4.60
2018-08-22T14:40:42.857Z,4.13
2018-08-22T14:45:46.060Z,4.17
2018-08-22T14:50:49.324Z,3.87
2018-08-22T14:55:52.621Z,3.70
2018-08-22T15:00:55.861Z,4.57
2018-08-22T15:05:59.546Z,5.53
2018-08-22T15:11:02.868Z,5.50
2018-08-22T15:16:06.012Z,5.80
2018-08-22T15:21:09.194Z,5.63
2018-08-22T15:26:12.450Z,5.20
2018-08-22T15:31:15.746Z,5.37
2018-08-22T15:36:19.036Z,4.87
2018-08-22T15:41:22.192Z,5.97
2018-08-22T15:46:25.383Z,6.17
2018-08-22T15:51:29.154Z,6.60
2018-08-22T15:56:32.326Z,6.30
2018-08-22T16:01:39.939Z,6.27
2018-08-22T16:06:43.303Z,5.83
2018-08-22T16:11:47.184Z,6.63
2018-08-22T16:16:50.336Z,6.30
2018-08-22T16:21:53.538Z,6.73
2018-08-22T16:26:57.112Z,6.30
2018-08-22T16:32:00.259Z,7.00
2018-08-22T16:37:03.622Z,6.60
2018-08-22T16:42:07.291Z,6.33
2018-08-22T16:47:10.774Z,7.80
2018-08-22T16:52:13.997Z,7.60
2018-08-22T16:57:17.174Z,8.23
2018-08-22T17:02:21.453Z,7.07
2018-08-22T17:07:25.655Z,7.57
2018-08-22T17:12:29.626Z,9.00
2018-08-22T17:17:32.814Z,7.70
2018-08-22T17:22:36.090Z,6.93
2018-08-22T17:27:39.330Z,7.47
2018-08-22T17:32:42.559Z,8.70
2018-08-22T17:37:57.050Z,7.30
2018-08-22T17:43:00.409Z,9.30
2018-08-22T17:48:04.543Z,8.10
2018-08-22T17:53:10.102Z,9.17
2018-08-22T17:58:13.346Z,8.93
2018-08-22T18:03:16.554Z,9.50
2018-08-22T18:08:20.132Z,10.80
2018-08-22T18:13:24.135Z,12.60
2018-08-22T18:18:28.412Z,12.70
2018-08-22T18:23:31.635Z,13.43
2018-08-22T18:28:35.059Z,13.23
2018-08-22T18:33:55.106Z,13.10
2018-08-22T18:39:07.584Z,12.73
2018-08-22T18:44:10.790Z,11.90
2018-08-22T18:49:13.982Z,10.80
2018-08-22T18:54:17.240Z,9.90
2018-08-22T18:59:24.295Z,8.37
2018-08-22T19:04:27.507Z,8.90
2018-08-22T19:09:30.707Z,9.83
2018-08-22T19:14:46.702Z,10.80
2018-08-22T19:19:49.914Z,9.97
2018-08-22T19:25:03.988Z,12.43
2018-08-22T19:30:23.295Z,11.47
2018-08-22T19:35:26.509Z,10.00
2018-08-22T19:40:30.731Z,14.47
2018-08-22T19:45:35.657Z,17.30
2018-08-22T19:50:39.002Z,15.97
2018-08-22T19:55:42.204Z,17.77
2018-08-22T20:00:45.394Z,11.53
2018-08-22T20:05:51.486Z,13.80
2018-08-22T20:10:54.638Z,14.03
2018-08-22T20:15:57.945Z,15.57
2018-08-22T20:21:01.229Z,15.73
2018-08-22T20:26:04.437Z,15.80
2018-08-22T20:31:11.918Z,15.60
2018-08-22T20:36:15.126Z,15.60
2018-08-22T20:41:21.911Z,15.30
2018-08-22T20:46:25.209Z,15.83
2018-08-22T20:51:29.790Z,15.60
2018-08-22T20:56:33.262Z,15.97
2018-08-22T21:01:36.433Z,18.17
2018-08-22T21:06:39.910Z,22.40
2018-08-22T21:11:43.199Z,20.50
2018-08-22T21:16:46.370Z,22.83
2018-08-22T21:21:49.561Z,20.83
2018-08-22T21:26:52.777Z,19.60
2018-08-22T21:31:57.003Z,18.53
2018-08-22T21:37:00.696Z,19.00
2018-08-22T21:42:03.884Z,18.63
2018-08-22T21:47:08.878Z,22.77
2018-08-22T21:52:12.145Z,22.37
2018-08-22T21:57:15.300Z,22.40
2018-08-22T22:02:19.983Z,23.47
2018-08-22T22:07:23.179Z,20.50
2018-08-22T22:12:31.879Z,20.70
2018-08-22T22:17:35.114Z,21.70
2018-08-22T22:22:38.290Z,20.17
2018-08-22T22:27:41.474Z,22.07
2018-08-22T22:32:44.662Z,19.47
2018-08-22T22:37:47.945Z,19.93
2018-08-22T22:42:51.172Z,18.07
2018-08-22T22:47:54.366Z,19.30
2018-08-22T22:52:57.530Z,19.27
2018-08-22T22:58:02.146Z,19.87
2018-08-22T23:03:06.663Z,18.53
2018-08-22T23:08:09.858Z,18.77
2018-08-22T23:13:13.046Z,18.57
2018-08-22T23:18:17.589Z,18.87
2018-08-22T23:23:36.221Z,19.47
2018-08-22T23:28:39.703Z,17.93
2018-08-22T23:33:42.869Z,20.20
2018-08-22T23:38:46.067Z,20.73
2018-08-22T23:43:51.591Z,19.23
2018-08-22T23:48:57.246Z,23.87
2018-08-22T23:54:00.792Z,20.90
2018-08-22T23:59:04.421Z,21.87
